sensor_id;sensor_type;location;lat;lon;timestamp;P1;durP1;ratioP1;P2;durP2;ratioP2
15990;SDS011;8100;50.994;4.538;2022-12-18T00:00:14;44.10;;;23.10;;
15990;SDS011;8100;50.994;4.538;2022-12-18T00:03:02;41.70;;;22.65;;
15990;SDS011;8100;50.994;4.538;2022-12-18T00:05:49;41.97;;;22.73;;
15990;SDS011;8100;50.994;4.538;2022-12-18T00:08:37;41.65;;;22.83;;
15990;SDS011;8100;50.994;4.538;2022-12-18T00:11:26;44.47;;;23.13;;
15990;SDS011;8100;50.994;4.538;2022-12-18T00:14:15;44.33;;;24.02;;
15990;SDS011;8100;50.994;4.538;2022-12-18T00:17:02;43.38;;;23.27;;
15990;SDS011;8100;50.994;4.538;2022-12-18T00:19:49;43.70;;;23.30;;
15990;SDS011;8100;50.994;4.538;2022-12-18T00:22:36;43.17;;;23.33;;
15990;SDS011;8100;50.994;4.538;2022-12-18T00:25:23;40.45;;;23.17;;
15990;SDS011;8100;50.994;4.538;2022-12-18T00:28:12;42.55;;;22.85;;
15990;SDS011;8100;50.994;4.538;2022-12-18T00:31:00;41.30;;;22.60;;
15990;SDS011;8100;50.994;4.538;2022-12-18T00:33:47;44.28;;;22.80;;
15990;SDS011;8100;50.994;4.538;2022-12-18T00:36:35;40.50;;;22.35;;
15990;SDS011;8100;50.994;4.538;2022-12-18T00:39:22;41.47;;;23.55;;
15990;SDS011;8100;50.994;4.538;2022-12-18T00:42:09;42.60;;;23.55;;
15990;SDS011;8100;50.994;4.538;2022-12-18T00:45:15;42.60;;;23.08;;
15990;SDS011;8100;50.994;4.538;2022-12-18T00:48:03;47.35;;;24.25;;
15990;SDS011;8100;50.994;4.538;2022-12-18T00:50:51;44.35;;;23.73;;
15990;SDS011;8100;50.994;4.538;2022-12-18T00:53:38;45.90;;;23.95;;
15990;SDS011;8100;50.994;4.538;2022-12-18T00:56:26;44.65;;;23.90;;
15990;SDS011;8100;50.994;4.538;2022-12-18T00:59:13;42.67;;;23.75;;
15990;SDS011;8100;50.994;4.538;2022-12-18T01:02:02;40.70;;;23.23;;
15990;SDS011;8100;50.994;4.538;2022-12-18T01:04:49;45.63;;;22.92;;
15990;SDS011;8100;50.994;4.538;2022-12-18T01:07:36;41.42;;;22.45;;
15990;SDS011;8100;50.994;4.538;2022-12-18T01:10:24;43.33;;;23.15;;
15990;SDS011;8100;50.994;4.538;2022-12-18T01:13:12;40.05;;;22.65;;
15990;SDS011;8100;50.994;4.538;2022-12-18T01:15:59;40.97;;;22.67;;
15990;SDS011;8100;50.994;4.538;2022-12-18T01:18:50;43.15;;;23.02;;
15990;SDS011;8100;50.994;4.538;2022-12-18T01:21:38;42.13;;;22.40;;
15990;SDS011;8100;50.994;4.538;2022-12-18T01:24:25;41.65;;;22.30;;
15990;SDS011;8100;50.994;4.538;2022-12-18T01:27:12;38.93;;;21.87;;
15990;SDS011;8100;50.994;4.538;2022-12-18T01:29:59;38.05;;;20.80;;
15990;SDS011;8100;50.994;4.538;2022-12-18T01:32:47;38.42;;;21.40;;
15990;SDS011;8100;50.994;4.538;2022-12-18T01:35:40;40.63;;;21.17;;
15990;SDS011;8100;50.994;4.538;2022-12-18T01:38:28;40.85;;;21.17;;
15990;SDS011;8100;50.994;4.538;2022-12-18T01:41:16;42.97;;;21.77;;
15990;SDS011;8100;50.994;4.538;2022-12-18T01:47:26;39.95;;;20.45;;
15990;SDS011;8100;50.994;4.538;2022-12-18T01:50:17;42.13;;;22.60;;
15990;SDS011;8100;50.994;4.538;2022-12-18T01:53:10;39.67;;;22.70;;
15990;SDS011;8100;50.994;4.538;2022-12-18T01:56:00;40.75;;;21.52;;
15990;SDS011;8100;50.994;4.538;2022-12-18T01:58:52;44.13;;;22.23;;
15990;SDS011;8100;50.994;4.538;2022-12-18T02:01:43;40.60;;;21.90;;
15990;SDS011;8100;50.994;4.538;2022-12-18T02:04:31;38.88;;;21.48;;
15990;SDS011;8100;50.994;4.538;2022-12-18T02:07:20;42.17;;;22.35;;
15990;SDS011;8100;50.994;4.538;2022-12-18T02:10:20;40.22;;;21.27;;
15990;SDS011;8100;50.994;4.538;2022-12-18T02:13:14;39.67;;;21.13;;
15990;SDS011;8100;50.994;4.538;2022-12-18T02:16:08;43.50;;;22.40;;
15990;SDS011;8100;50.994;4.538;2022-12-18T02:19:06;39.05;;;20.88;;
15990;SDS011;8100;50.994;4.538;2022-12-18T02:22:07;41.53;;;22.48;;
15990;SDS011;8100;50.994;4.538;2022-12-18T02:25:12;40.97;;;21.67;;
15990;SDS011;8100;50.994;4.538;2022-12-18T02:28:09;41.42;;;21.05;;
15990;SDS011;8100;50.994;4.538;2022-12-18T02:31:00;39.42;;;20.95;;
15990;SDS011;8100;50.994;4.538;2022-12-18T02:33:51;42.03;;;22.05;;
15990;SDS011;8100;50.994;4.538;2022-12-18T02:36:41;42.58;;;22.20;;
15990;SDS011;8100;50.994;4.538;2022-12-18T02:39:30;41.20;;;22.10;;
15990;SDS011;8100;50.994;4.538;2022-12-18T02:42:19;40.80;;;22.33;;
15990;SDS011;8100;50.994;4.538;2022-12-18T02:45:09;41.55;;;21.55;;
15990;SDS011;8100;50.994;4.538;2022-12-18T02:47:57;41.83;;;21.65;;
15990;SDS011;8100;50.994;4.538;2022-12-18T02:50:44;43.63;;;21.27;;
15990;SDS011;8100;50.994;4.538;2022-12-18T02:53:40;39.65;;;20.70;;
15990;SDS011;8100;50.994;4.538;2022-12-18T02:56:34;39.67;;;21.50;;
15990;SDS011;8100;50.994;4.538;2022-12-18T02:59:26;43.70;;;21.73;;
15990;SDS011;8100;50.994;4.538;2022-12-18T03:02:19;40.70;;;22.05;;
15990;SDS011;8100;50.994;4.538;2022-12-18T03:05:11;38.58;;;21.23;;
15990;SDS011;8100;50.994;4.538;2022-12-18T03:08:01;41.40;;;22.20;;
15990;SDS011;8100;50.994;4.538;2022-12-18T03:10:53;43.55;;;21.70;;
15990;SDS011;8100;50.994;4.538;2022-12-18T03:13:45;43.28;;;22.15;;
15990;SDS011;8100;50.994;4.538;2022-12-18T03:16:37;41.33;;;21.60;;
15990;SDS011;8100;50.994;4.538;2022-12-18T03:19:29;42.42;;;21.35;;
15990;SDS011;8100;50.994;4.538;2022-12-18T03:22:19;39.80;;;20.42;;
15990;SDS011;8100;50.994;4.538;2022-12-18T03:25:10;39.15;;;20.75;;
15990;SDS011;8100;50.994;4.538;2022-12-18T03:27:59;43.05;;;22.08;;
15990;SDS011;8100;50.994;4.538;2022-12-18T03:30:50;39.50;;;20.45;;
15990;SDS011;8100;50.994;4.538;2022-12-18T03:33:44;39.45;;;20.85;;
15990;SDS011;8100;50.994;4.538;2022-12-18T03:36:35;41.00;;;21.95;;
15990;SDS011;8100;50.994;4.538;2022-12-18T03:39:22;40.00;;;21.48;;
15990;SDS011;8100;50.994;4.538;2022-12-18T03:42:10;43.15;;;21.05;;
15990;SDS011;8100;50.994;4.538;2022-12-18T03:45:05;42.08;;;21.27;;
15990;SDS011;8100;50.994;4.538;2022-12-18T03:47:58;35.92;;;19.73;;
15990;SDS011;8100;50.994;4.538;2022-12-18T03:50:48;40.85;;;21.35;;
15990;SDS011;8100;50.994;4.538;2022-12-18T03:53:43;39.88;;;20.63;;
15990;SDS011;8100;50.994;4.538;2022-12-18T03:56:37;36.75;;;19.63;;
15990;SDS011;8100;50.994;4.538;2022-12-18T03:59:27;35.47;;;19.27;;
15990;SDS011;8100;50.994;4.538;2022-12-18T04:02:17;36.47;;;20.27;;
15990;SDS011;8100;50.994;4.538;2022-12-18T04:05:05;36.30;;;19.42;;
15990;SDS011;8100;50.994;4.538;2022-12-18T04:07:55;37.05;;;18.90;;
15990;SDS011;8100;50.994;4.538;2022-12-18T04:10:45;36.20;;;19.23;;
15990;SDS011;8100;50.994;4.538;2022-12-18T04:13:32;36.40;;;19.80;;
15990;SDS011;8100;50.994;4.538;2022-12-18T04:16:21;35.90;;;19.52;;
15990;SDS011;8100;50.994;4.538;2022-12-18T04:19:08;36.38;;;19.77;;
15990;SDS011;8100;50.994;4.538;2022-12-18T04:21:55;34.85;;;18.95;;
15990;SDS011;8100;50.994;4.538;2022-12-18T04:24:43;34.50;;;19.23;;
15990;SDS011;8100;50.994;4.538;2022-12-18T04:27:32;36.88;;;19.27;;
15990;SDS011;8100;50.994;4.538;2022-12-18T04:30:19;38.17;;;19.15;;
15990;SDS011;8100;50.994;4.538;2022-12-18T04:33:08;36.97;;;19.33;;
15990;SDS011;8100;50.994;4.538;2022-12-18T04:35:55;36.67;;;20.00;;
15990;SDS011;8100;50.994;4.538;2022-12-18T04:38:42;34.70;;;18.77;;
15990;SDS011;8100;50.994;4.538;2022-12-18T04:41:29;34.90;;;18.45;;
15990;SDS011;8100;50.994;4.538;2022-12-18T04:44:18;34.72;;;18.67;;
15990;SDS011;8100;50.994;4.538;2022-12-18T04:47:05;37.78;;;19.77;;
15990;SDS011;8100;50.994;4.538;2022-12-18T04:49:53;34.97;;;18.42;;
15990;SDS011;8100;50.994;4.538;2022-12-18T04:52:40;34.22;;;17.67;;
15990;SDS011;8100;50.994;4.538;2022-12-18T04:55:27;35.75;;;18.70;;
15990;SDS011;8100;50.994;4.538;2022-12-18T04:58:14;31.23;;;17.85;;
15990;SDS011;8100;50.994;4.538;2022-12-18T05:01:03;33.90;;;18.35;;
15990;SDS011;8100;50.994;4.538;2022-12-18T05:03:50;31.80;;;17.50;;
15990;SDS011;8100;50.994;4.538;2022-12-18T05:06:38;33.65;;;18.17;;
15990;SDS011;8100;50.994;4.538;2022-12-18T05:09:25;35.63;;;18.58;;
15990;SDS011;8100;50.994;4.538;2022-12-18T05:12:12;32.33;;;17.65;;
15990;SDS011;8100;50.994;4.538;2022-12-18T05:14:59;31.98;;;17.42;;
15990;SDS011;8100;50.994;4.538;2022-12-18T05:17:48;37.72;;;19.25;;
15990;SDS011;8100;50.994;4.538;2022-12-18T05:20:35;31.23;;;17.33;;
15990;SDS011;8100;50.994;4.538;2022-12-18T05:23:23;33.30;;;17.65;;
15990;SDS011;8100;50.994;4.538;2022-12-18T05:26:14;31.95;;;17.98;;
15990;SDS011;8100;50.994;4.538;2022-12-18T05:29:02;36.25;;;17.35;;
15990;SDS011;8100;50.994;4.538;2022-12-18T05:31:50;35.08;;;17.88;;
15990;SDS011;8100;50.994;4.538;2022-12-18T05:34:38;35.28;;;18.73;;
15990;SDS011;8100;50.994;4.538;2022-12-18T05:37:26;34.38;;;18.02;;
15990;SDS011;8100;50.994;4.538;2022-12-18T05:40:14;34.75;;;18.05;;
15990;SDS011;8100;50.994;4.538;2022-12-18T05:43:01;31.45;;;17.48;;
15990;SDS011;8100;50.994;4.538;2022-12-18T05:45:48;35.65;;;17.88;;
15990;SDS011;8100;50.994;4.538;2022-12-18T05:48:36;32.53;;;18.08;;
15990;SDS011;8100;50.994;4.538;2022-12-18T05:51:25;34.30;;;18.67;;
15990;SDS011;8100;50.994;4.538;2022-12-18T05:54:12;35.08;;;17.75;;
15990;SDS011;8100;50.994;4.538;2022-12-18T05:56:59;32.30;;;17.45;;
15990;SDS011;8100;50.994;4.538;2022-12-18T05:59:46;33.88;;;17.45;;
15990;SDS011;8100;50.994;4.538;2022-12-18T06:02:33;33.78;;;17.60;;
15990;SDS011;8100;50.994;4.538;2022-12-18T06:05:20;30.77;;;16.55;;
15990;SDS011;8100;50.994;4.538;2022-12-18T06:08:09;30.52;;;16.35;;
15990;SDS011;8100;50.994;4.538;2022-12-18T06:10:57;33.35;;;17.33;;
15990;SDS011;8100;50.994;4.538;2022-12-18T06:13:44;29.90;;;15.25;;
15990;SDS011;8100;50.994;4.538;2022-12-18T06:16:32;30.70;;;16.85;;
15990;SDS011;8100;50.994;4.538;2022-12-18T06:19:20;30.50;;;16.90;;
15990;SDS011;8100;50.994;4.538;2022-12-18T06:22:07;33.97;;;16.42;;
15990;SDS011;8100;50.994;4.538;2022-12-18T06:24:55;30.60;;;15.77;;
15990;SDS011;8100;50.994;4.538;2022-12-18T06:27:43;28.83;;;16.92;;
15990;SDS011;8100;50.994;4.538;2022-12-18T06:30:30;27.42;;;15.07;;
15990;SDS011;8100;50.994;4.538;2022-12-18T06:33:17;28.95;;;15.98;;
15990;SDS011;8100;50.994;4.538;2022-12-18T06:36:05;28.67;;;15.40;;
15990;SDS011;8100;50.994;4.538;2022-12-18T06:38:54;23.63;;;13.77;;
15990;SDS011;8100;50.994;4.538;2022-12-18T06:41:44;25.20;;;14.48;;
15990;SDS011;8100;50.994;4.538;2022-12-18T06:44:31;27.58;;;14.80;;
15990;SDS011;8100;50.994;4.538;2022-12-18T06:47:18;27.75;;;15.32;;
15990;SDS011;8100;50.994;4.538;2022-12-18T06:50:06;29.83;;;14.80;;
15990;SDS011;8100;50.994;4.538;2022-12-18T06:52:53;26.58;;;13.90;;
15990;SDS011;8100;50.994;4.538;2022-12-18T06:55:41;26.38;;;14.60;;
15990;SDS011;8100;50.994;4.538;2022-12-18T06:58:29;26.70;;;14.52;;
15990;SDS011;8100;50.994;4.538;2022-12-18T07:01:16;25.67;;;14.13;;
15990;SDS011;8100;50.994;4.538;2022-12-18T07:04:03;27.17;;;14.30;;
15990;SDS011;8100;50.994;4.538;2022-12-18T07:06:51;30.60;;;15.10;;
15990;SDS011;8100;50.994;4.538;2022-12-18T07:09:38;27.92;;;14.52;;
15990;SDS011;8100;50.994;4.538;2022-12-18T07:12:26;24.02;;;13.77;;
15990;SDS011;8100;50.994;4.538;2022-12-18T07:15:14;25.15;;;13.40;;
15990;SDS011;8100;50.994;4.538;2022-12-18T07:18:02;25.77;;;13.48;;
15990;SDS011;8100;50.994;4.538;2022-12-18T07:20:49;29.60;;;14.57;;
15990;SDS011;8100;50.994;4.538;2022-12-18T07:23:37;28.40;;;14.50;;
15990;SDS011;8100;50.994;4.538;2022-12-18T07:26:24;27.20;;;13.27;;
15990;SDS011;8100;50.994;4.538;2022-12-18T07:29:11;26.55;;;14.57;;
15990;SDS011;8100;50.994;4.538;2022-12-18T07:32:00;28.25;;;14.07;;
15990;SDS011;8100;50.994;4.538;2022-12-18T07:34:47;23.83;;;13.32;;
15990;SDS011;8100;50.994;4.538;2022-12-18T07:37:34;23.38;;;13.35;;
15990;SDS011;8100;50.994;4.538;2022-12-18T07:40:21;23.50;;;13.85;;
15990;SDS011;8100;50.994;4.538;2022-12-18T07:43:09;24.02;;;13.68;;
15990;SDS011;8100;50.994;4.538;2022-12-18T07:45:56;24.63;;;13.80;;
15990;SDS011;8100;50.994;4.538;2022-12-18T07:48:44;30.13;;;14.70;;
15990;SDS011;8100;50.994;4.538;2022-12-18T07:51:32;24.52;;;12.93;;
15990;SDS011;8100;50.994;4.538;2022-12-18T07:54:19;26.65;;;13.98;;
15990;SDS011;8100;50.994;4.538;2022-12-18T07:57:06;26.30;;;13.98;;
15990;SDS011;8100;50.994;4.538;2022-12-18T07:59:54;25.63;;;14.35;;
15990;SDS011;8100;50.994;4.538;2022-12-18T08:02:41;27.75;;;13.88;;
15990;SDS011;8100;50.994;4.538;2022-12-18T08:05:29;26.73;;;14.63;;
15990;SDS011;8100;50.994;4.538;2022-12-18T08:08:16;23.92;;;14.35;;
15990;SDS011;8100;50.994;4.538;2022-12-18T08:11:04;27.25;;;14.43;;
15990;SDS011;8100;50.994;4.538;2022-12-18T08:13:51;25.63;;;13.82;;
15990;SDS011;8100;50.994;4.538;2022-12-18T08:16:38;25.17;;;14.35;;
15990;SDS011;8100;50.994;4.538;2022-12-18T08:19:26;25.58;;;14.07;;
15990;SDS011;8100;50.994;4.538;2022-12-18T08:22:14;25.63;;;13.38;;
15990;SDS011;8100;50.994;4.538;2022-12-18T08:25:02;24.50;;;13.82;;
15990;SDS011;8100;50.994;4.538;2022-12-18T08:27:50;25.42;;;13.48;;
15990;SDS011;8100;50.994;4.538;2022-12-18T08:30:37;28.13;;;14.30;;
15990;SDS011;8100;50.994;4.538;2022-12-18T08:33:24;22.45;;;12.85;;
15990;SDS011;8100;50.994;4.538;2022-12-18T08:36:12;24.05;;;13.93;;
15990;SDS011;8100;50.994;4.538;2022-12-18T08:39:01;24.25;;;12.80;;
15990;SDS011;8100;50.994;4.538;2022-12-18T08:41:48;27.13;;;14.23;;
15990;SDS011;8100;50.994;4.538;2022-12-18T08:44:49;24.35;;;12.82;;
15990;SDS011;8100;50.994;4.538;2022-12-18T08:47:37;21.42;;;12.88;;
15990;SDS011;8100;50.994;4.538;2022-12-18T08:50:24;24.38;;;11.98;;
15990;SDS011;8100;50.994;4.538;2022-12-18T08:53:12;24.55;;;12.60;;
15990;SDS011;8100;50.994;4.538;2022-12-18T08:56:01;20.60;;;11.95;;
15990;SDS011;8100;50.994;4.538;2022-12-18T08:58:50;21.08;;;11.68;;
15990;SDS011;8100;50.994;4.538;2022-12-18T09:01:38;21.30;;;12.52;;
15990;SDS011;8100;50.994;4.538;2022-12-18T09:04:26;21.92;;;12.02;;
15990;SDS011;8100;50.994;4.538;2022-12-18T09:07:14;21.08;;;12.27;;
15990;SDS011;8100;50.994;4.538;2022-12-18T09:10:01;22.60;;;12.57;;
15990;SDS011;8100;50.994;4.538;2022-12-18T09:12:50;22.92;;;12.20;;
15990;SDS011;8100;50.994;4.538;2022-12-18T09:15:40;21.08;;;11.80;;
15990;SDS011;8100;50.994;4.538;2022-12-18T09:18:28;23.10;;;12.52;;
15990;SDS011;8100;50.994;4.538;2022-12-18T09:21:17;22.85;;;12.40;;
15990;SDS011;8100;50.994;4.538;2022-12-18T09:24:06;22.00;;;11.68;;
15990;SDS011;8100;50.994;4.538;2022-12-18T09:26:55;24.08;;;12.80;;
15990;SDS011;8100;50.994;4.538;2022-12-18T09:29:44;21.17;;;11.50;;
15990;SDS011;8100;50.994;4.538;2022-12-18T09:32:33;23.30;;;12.50;;
15990;SDS011;8100;50.994;4.538;2022-12-18T09:35:21;17.05;;;10.35;;
15990;SDS011;8100;50.994;4.538;2022-12-18T09:38:09;21.42;;;12.20;;
15990;SDS011;8100;50.994;4.538;2022-12-18T09:40:59;23.75;;;13.70;;
15990;SDS011;8100;50.994;4.538;2022-12-18T09:43:52;23.23;;;13.20;;
15990;SDS011;8100;50.994;4.538;2022-12-18T09:46:45;21.92;;;11.63;;
15990;SDS011;8100;50.994;4.538;2022-12-18T09:49:38;22.67;;;11.60;;
15990;SDS011;8100;50.994;4.538;2022-12-18T09:52:29;20.45;;;11.23;;
15990;SDS011;8100;50.994;4.538;2022-12-18T09:55:23;18.27;;;11.15;;
15990;SDS011;8100;50.994;4.538;2022-12-18T09:58:14;22.70;;;11.82;;
15990;SDS011;8100;50.994;4.538;2022-12-18T10:01:09;21.95;;;12.18;;
15990;SDS011;8100;50.994;4.538;2022-12-18T10:03:58;22.73;;;11.93;;
15990;SDS011;8100;50.994;4.538;2022-12-18T10:06:48;20.35;;;11.00;;
15990;SDS011;8100;50.994;4.538;2022-12-18T10:09:42;20.75;;;11.07;;
15990;SDS011;8100;50.994;4.538;2022-12-18T10:12:37;18.25;;;10.35;;
15990;SDS011;8100;50.994;4.538;2022-12-18T10:15:31;17.95;;;9.95;;
15990;SDS011;8100;50.994;4.538;2022-12-18T10:18:25;18.75;;;10.68;;
15990;SDS011;8100;50.994;4.538;2022-12-18T10:21:26;17.83;;;10.25;;
15990;SDS011;8100;50.994;4.538;2022-12-18T10:24:20;20.63;;;10.48;;
15990;SDS011;8100;50.994;4.538;2022-12-18T10:27:16;17.85;;;9.13;;
15990;SDS011;8100;50.994;4.538;2022-12-18T10:30:07;17.65;;;10.68;;
15990;SDS011;8100;50.994;4.538;2022-12-18T10:33:02;18.45;;;10.35;;
15990;SDS011;8100;50.994;4.538;2022-12-18T10:35:50;16.70;;;9.57;;
15990;SDS011;8100;50.994;4.538;2022-12-18T10:38:39;18.42;;;10.13;;
15990;SDS011;8100;50.994;4.538;2022-12-18T10:41:26;16.65;;;9.68;;
15990;SDS011;8100;50.994;4.538;2022-12-18T10:44:17;18.58;;;10.23;;
15990;SDS011;8100;50.994;4.538;2022-12-18T10:47:06;19.27;;;10.32;;
15990;SDS011;8100;50.994;4.538;2022-12-18T10:50:01;18.73;;;9.65;;
15990;SDS011;8100;50.994;4.538;2022-12-18T10:52:54;19.15;;;10.40;;
15990;SDS011;8100;50.994;4.538;2022-12-18T10:55:44;21.77;;;10.98;;
15990;SDS011;8100;50.994;4.538;2022-12-18T10:58:34;18.58;;;10.32;;
15990;SDS011;8100;50.994;4.538;2022-12-18T11:01:23;17.73;;;9.82;;
15990;SDS011;8100;50.994;4.538;2022-12-18T11:04:13;18.00;;;10.50;;
15990;SDS011;8100;50.994;4.538;2022-12-18T11:07:05;17.05;;;10.27;;
15990;SDS011;8100;50.994;4.538;2022-12-18T11:10:03;18.02;;;10.02;;
15990;SDS011;8100;50.994;4.538;2022-12-18T11:12:53;17.60;;;9.45;;
15990;SDS011;8100;50.994;4.538;2022-12-18T11:15:40;16.80;;;9.73;;
15990;SDS011;8100;50.994;4.538;2022-12-18T11:18:28;15.85;;;8.82;;
15990;SDS011;8100;50.994;4.538;2022-12-18T11:21:18;16.83;;;9.32;;
15990;SDS011;8100;50.994;4.538;2022-12-18T11:24:07;19.20;;;10.57;;
15990;SDS011;8100;50.994;4.538;2022-12-18T11:27:15;15.82;;;9.88;;
15990;SDS011;8100;50.994;4.538;2022-12-18T11:30:09;16.05;;;9.45;;
15990;SDS011;8100;50.994;4.538;2022-12-18T11:33:08;16.35;;;9.75;;
15990;SDS011;8100;50.994;4.538;2022-12-18T11:36:00;16.23;;;9.65;;
15990;SDS011;8100;50.994;4.538;2022-12-18T11:38:50;15.57;;;9.50;;
15990;SDS011;8100;50.994;4.538;2022-12-18T11:41:41;17.75;;;10.32;;
15990;SDS011;8100;50.994;4.538;2022-12-18T11:44:54;20.85;;;9.88;;
15990;SDS011;8100;50.994;4.538;2022-12-18T11:47:48;14.80;;;9.52;;
15990;SDS011;8100;50.994;4.538;2022-12-18T11:50:43;15.70;;;8.55;;
15990;SDS011;8100;50.994;4.538;2022-12-18T11:53:35;15.40;;;9.60;;
15990;SDS011;8100;50.994;4.538;2022-12-18T11:56:26;17.15;;;9.25;;
15990;SDS011;8100;50.994;4.538;2022-12-18T11:59:21;15.60;;;8.95;;
15990;SDS011;8100;50.994;4.538;2022-12-18T12:02:21;15.05;;;9.32;;
15990;SDS011;8100;50.994;4.538;2022-12-18T12:05:27;17.70;;;9.45;;
15990;SDS011;8100;50.994;4.538;2022-12-18T12:08:23;16.33;;;9.35;;
15990;SDS011;8100;50.994;4.538;2022-12-18T12:11:17;14.70;;;8.90;;
15990;SDS011;8100;50.994;4.538;2022-12-18T12:14:15;16.00;;;9.13;;
15990;SDS011;8100;50.994;4.538;2022-12-18T12:17:20;14.15;;;9.18;;
15990;SDS011;8100;50.994;4.538;2022-12-18T12:20:14;16.00;;;9.48;;
15990;SDS011;8100;50.994;4.538;2022-12-18T12:23:13;15.18;;;9.30;;
15990;SDS011;8100;50.994;4.538;2022-12-18T12:26:07;17.58;;;9.98;;
15990;SDS011;8100;50.994;4.538;2022-12-18T12:29:01;14.85;;;9.68;;
15990;SDS011;8100;50.994;4.538;2022-12-18T12:32:12;15.52;;;9.80;;
15990;SDS011;8100;50.994;4.538;2022-12-18T12:35:12;19.42;;;10.65;;
15990;SDS011;8100;50.994;4.538;2022-12-18T12:38:11;17.33;;;9.82;;
15990;SDS011;8100;50.994;4.538;2022-12-18T12:41:02;18.15;;;10.20;;
15990;SDS011;8100;50.994;4.538;2022-12-18T12:43:51;17.25;;;10.52;;
15990;SDS011;8100;50.994;4.538;2022-12-18T12:46:39;17.48;;;10.50;;
15990;SDS011;8100;50.994;4.538;2022-12-18T12:49:29;19.42;;;10.40;;
15990;SDS011;8100;50.994;4.538;2022-12-18T12:52:21;19.85;;;11.20;;
15990;SDS011;8100;50.994;4.538;2022-12-18T12:55:17;15.48;;;10.02;;
15990;SDS011;8100;50.994;4.538;2022-12-18T12:58:10;16.73;;;10.27;;
15990;SDS011;8100;50.994;4.538;2022-12-18T13:01:08;16.35;;;10.23;;
15990;SDS011;8100;50.994;4.538;2022-12-18T13:04:08;16.27;;;10.10;;
15990;SDS011;8100;50.994;4.538;2022-12-18T13:07:08;17.70;;;9.85;;
15990;SDS011;8100;50.994;4.538;2022-12-18T13:10:13;17.30;;;10.85;;
15990;SDS011;8100;50.994;4.538;2022-12-18T13:13:10;18.35;;;10.30;;
15990;SDS011;8100;50.994;4.538;2022-12-18T13:16:03;17.90;;;10.93;;
15990;SDS011;8100;50.994;4.538;2022-12-18T13:18:52;18.27;;;10.68;;
15990;SDS011;8100;50.994;4.538;2022-12-18T13:21:42;17.42;;;10.80;;
15990;SDS011;8100;50.994;4.538;2022-12-18T13:24:39;18.20;;;10.55;;
15990;SDS011;8100;50.994;4.538;2022-12-18T13:27:47;17.27;;;10.00;;
15990;SDS011;8100;50.994;4.538;2022-12-18T13:30:48;15.20;;;9.55;;
15990;SDS011;8100;50.994;4.538;2022-12-18T13:33:41;16.48;;;10.30;;
15990;SDS011;8100;50.994;4.538;2022-12-18T13:36:30;17.42;;;9.90;;
15990;SDS011;8100;50.994;4.538;2022-12-18T13:39:22;18.80;;;11.05;;
15990;SDS011;8100;50.994;4.538;2022-12-18T13:45:45;19.98;;;11.48;;
15990;SDS011;8100;50.994;4.538;2022-12-18T13:48:35;19.40;;;11.00;;
15990;SDS011;8100;50.994;4.538;2022-12-18T13:51:26;21.27;;;12.38;;
15990;SDS011;8100;50.994;4.538;2022-12-18T13:54:17;21.17;;;10.98;;
15990;SDS011;8100;50.994;4.538;2022-12-18T13:57:25;17.42;;;10.48;;
15990;SDS011;8100;50.994;4.538;2022-12-18T14:00:25;20.33;;;11.00;;
15990;SDS011;8100;50.994;4.538;2022-12-18T14:03:19;18.45;;;10.95;;
15990;SDS011;8100;50.994;4.538;2022-12-18T14:06:10;20.67;;;11.85;;
15990;SDS011;8100;50.994;4.538;2022-12-18T14:08:58;18.48;;;11.18;;
15990;SDS011;8100;50.994;4.538;2022-12-18T14:11:46;19.45;;;12.13;;
15990;SDS011;8100;50.994;4.538;2022-12-18T14:14:35;19.30;;;10.85;;
15990;SDS011;8100;50.994;4.538;2022-12-18T14:17:23;20.27;;;12.27;;
15990;SDS011;8100;50.994;4.538;2022-12-18T14:20:14;18.10;;;11.38;;
15990;SDS011;8100;50.994;4.538;2022-12-18T14:23:01;21.17;;;11.93;;
15990;SDS011;8100;50.994;4.538;2022-12-18T14:25:48;19.83;;;12.38;;
15990;SDS011;8100;50.994;4.538;2022-12-18T14:28:42;22.42;;;13.23;;
15990;SDS011;8100;50.994;4.538;2022-12-18T14:31:30;18.65;;;11.15;;
15990;SDS011;8100;50.994;4.538;2022-12-18T14:34:17;19.45;;;11.55;;
15990;SDS011;8100;50.994;4.538;2022-12-18T14:37:07;20.73;;;12.48;;
15990;SDS011;8100;50.994;4.538;2022-12-18T14:39:57;21.45;;;13.30;;
15990;SDS011;8100;50.994;4.538;2022-12-18T14:42:45;21.05;;;11.95;;
15990;SDS011;8100;50.994;4.538;2022-12-18T14:45:33;21.40;;;11.80;;
15990;SDS011;8100;50.994;4.538;2022-12-18T14:48:33;18.98;;;11.88;;
15990;SDS011;8100;50.994;4.538;2022-12-18T14:51:23;21.88;;;12.95;;
15990;SDS011;8100;50.994;4.538;2022-12-18T14:54:14;23.40;;;13.38;;
15990;SDS011;8100;50.994;4.538;2022-12-18T14:57:04;25.98;;;15.13;;
15990;SDS011;8100;50.994;4.538;2022-12-18T14:59:52;23.65;;;14.43;;
15990;SDS011;8100;50.994;4.538;2022-12-18T15:02:39;25.75;;;14.98;;
15990;SDS011;8100;50.994;4.538;2022-12-18T15:05:27;22.17;;;13.15;;
15990;SDS011;8100;50.994;4.538;2022-12-18T15:08:29;25.02;;;12.98;;
15990;SDS011;8100;50.994;4.538;2022-12-18T15:11:26;24.13;;;13.40;;
15990;SDS011;8100;50.994;4.538;2022-12-18T15:14:22;22.45;;;13.73;;
15990;SDS011;8100;50.994;4.538;2022-12-18T15:17:21;21.55;;;12.48;;
15990;SDS011;8100;50.994;4.538;2022-12-18T15:20:10;20.33;;;12.32;;
15990;SDS011;8100;50.994;4.538;2022-12-18T15:22:57;21.42;;;12.50;;
15990;SDS011;8100;50.994;4.538;2022-12-18T15:25:45;21.30;;;12.27;;
15990;SDS011;8100;50.994;4.538;2022-12-18T15:28:35;21.60;;;12.35;;
15990;SDS011;8100;50.994;4.538;2022-12-18T15:31:24;23.55;;;12.20;;
15990;SDS011;8100;50.994;4.538;2022-12-18T15:34:18;22.85;;;12.13;;
15990;SDS011;8100;50.994;4.538;2022-12-18T15:37:07;21.40;;;11.80;;
15990;SDS011;8100;50.994;4.538;2022-12-18T15:39:55;22.10;;;12.80;;
15990;SDS011;8100;50.994;4.538;2022-12-18T15:42:42;24.85;;;12.82;;
15990;SDS011;8100;50.994;4.538;2022-12-18T15:45:48;22.48;;;12.52;;
15990;SDS011;8100;50.994;4.538;2022-12-18T15:48:37;20.08;;;11.95;;
15990;SDS011;8100;50.994;4.538;2022-12-18T15:51:27;23.42;;;12.93;;
15990;SDS011;8100;50.994;4.538;2022-12-18T15:54:17;22.45;;;13.32;;
15990;SDS011;8100;50.994;4.538;2022-12-18T15:57:24;22.20;;;12.77;;
15990;SDS011;8100;50.994;4.538;2022-12-18T16:00:12;27.33;;;12.77;;
15990;SDS011;8100;50.994;4.538;2022-12-18T16:03:01;25.90;;;14.20;;
15990;SDS011;8100;50.994;4.538;2022-12-18T16:05:48;24.48;;;12.70;;
15990;SDS011;8100;50.994;4.538;2022-12-18T16:08:35;26.08;;;13.55;;
15990;SDS011;8100;50.994;4.538;2022-12-18T16:11:23;26.42;;;14.35;;
15990;SDS011;8100;50.994;4.538;2022-12-18T16:14:24;25.45;;;13.82;;
15990;SDS011;8100;50.994;4.538;2022-12-18T16:17:13;23.40;;;12.95;;
15990;SDS011;8100;50.994;4.538;2022-12-18T16:20:02;25.85;;;13.10;;
15990;SDS011;8100;50.994;4.538;2022-12-18T16:22:49;23.30;;;12.68;;
15990;SDS011;8100;50.994;4.538;2022-12-18T16:25:38;25.75;;;13.57;;
15990;SDS011;8100;50.994;4.538;2022-12-18T16:28:25;26.85;;;13.90;;
15990;SDS011;8100;50.994;4.538;2022-12-18T16:31:12;25.33;;;13.38;;
15990;SDS011;8100;50.994;4.538;2022-12-18T16:34:18;23.48;;;13.15;;
15990;SDS011;8100;50.994;4.538;2022-12-18T16:37:09;24.70;;;13.60;;
15990;SDS011;8100;50.994;4.538;2022-12-18T16:39:57;24.52;;;13.20;;
15990;SDS011;8100;50.994;4.538;2022-12-18T16:42:45;25.02;;;13.07;;
15990;SDS011;8100;50.994;4.538;2022-12-18T16:45:32;25.65;;;13.82;;
15990;SDS011;8100;50.994;4.538;2022-12-18T16:48:20;26.08;;;14.13;;
15990;SDS011;8100;50.994;4.538;2022-12-18T16:51:07;26.38;;;14.50;;
15990;SDS011;8100;50.994;4.538;2022-12-18T16:53:56;24.17;;;13.25;;
15990;SDS011;8100;50.994;4.538;2022-12-18T16:56:43;23.33;;;13.05;;
15990;SDS011;8100;50.994;4.538;2022-12-18T16:59:33;25.73;;;13.88;;